Time;durP1;ratioP1;P1;durP2;ratioP2;P2;SDS_P1;SDS_P2;PMS_P1;PMS_P2;Temp;Humidity;BMP_temperature;BMP_pressure;BME280_temperature;BME280_humidity;BME280_pressure;Samples;Min_cycle;Max_cycle;Signal;HPM_P1;HPM_P2
2021/12/14 00:01:22;;;;;;;3.10;2.90;;;18.40;56.90;;;;;;5042494;28;20482;-81
2021/12/14 00:03:51;;;;;;;4.17;3.50;;;18.40;56.90;;;;;;5050191;28;20479;-81
2021/12/14 00:06:28;;;;;;;3.23;2.97;;;18.40;56.90;;;;;;5044364;28;20466;-81
2021/12/14 00:08:58;;;;;;;3.20;2.90;;;18.40;57.00;;;;;;5051612;28;20493;-81
2021/12/14 00:11:50;;;;;;;3.60;3.30;;;18.30;56.90;;;;;;5049510;28;20486;-81
2021/12/14 00:15:02;;;;;;;2.80;2.70;;;18.40;56.90;;;;;;5050538;28;20462;-81
2021/12/14 00:17:18;;;;;;;3.47;2.70;;;18.40;56.90;;;;;;5054488;28;20447;-81
2021/12/14 00:19:46;;;;;;;3.20;2.90;;;18.40;56.90;;;;;;5052343;28;20448;-81
2021/12/14 00:22:29;;;;;;;3.63;3.33;;;18.30;56.80;;;;;;5053441;28;20481;-82
2021/12/14 00:24:56;;;;;;;4.17;3.40;;;18.30;56.90;;;;;;5047445;28;20459;-82
2021/12/14 00:27:25;;;;;;;3.93;3.00;;;18.40;56.90;;;;;;5040806;28;20570;-81
2021/12/14 00:29:54;;;;;;;2.90;2.70;;;18.40;57.00;;;;;;5043058;28;20460;-81
2021/12/14 00:32:26;;;;;;;3.63;3.33;;;18.40;56.90;;;;;;5042489;28;20447;-82
2021/12/14 00:34:57;;;;;;;3.43;3.00;;;18.40;56.90;;;;;;5041865;28;20466;-82
2021/12/14 00:37:27;;;;;;;3.50;3.20;;;18.30;56.80;;;;;;5047547;28;20507;-82
2021/12/14 00:39:55;;;;;;;3.80;3.00;;;18.30;56.80;;;;;;5045519;28;20523;-82
2021/12/14 00:42:25;;;;;;;3.17;2.90;;;18.30;56.80;;;;;;5040404;28;20545;-82
2021/12/14 00:44:53;;;;;;;3.30;3.10;;;18.40;56.90;;;;;;5041762;28;20471;-82
2021/12/14 00:47:21;;;;;;;2.90;2.70;;;18.30;56.80;;;;;;5040397;28;20483;-82
2021/12/14 00:49:52;;;;;;;4.13;3.43;;;18.30;56.80;;;;;;5043947;28;20455;-82
2021/12/14 00:52:19;;;;;;;4.23;3.20;;;18.30;56.80;;;;;;5041839;28;20501;-82
2021/12/14 00:54:47;;;;;;;3.13;2.90;;;18.30;56.80;;;;;;5043574;28;20495;-82
2021/12/14 00:57:15;;;;;;;3.07;2.87;;;18.30;56.80;;;;;;5047095;28;20454;-81
2021/12/14 00:59:45;;;;;;;3.20;3.00;;;18.30;56.80;;;;;;5051704;28;20467;-81
2021/12/14 01:02:15;;;;;;;5.60;2.70;;;18.40;56.80;;;;;;5058655;28;20466;-81
2021/12/14 01:04:45;;;;;;;3.07;2.87;;;18.30;56.80;;;;;;5043247;28;20517;-82
2021/12/14 01:07:14;;;;;;;3.10;2.90;;;18.30;56.80;;;;;;5052774;28;20568;-82
2021/12/14 01:09:44;;;;;;;2.93;2.60;;;18.30;56.80;;;;;;5049488;28;20507;-82
2021/12/14 01:12:20;;;;;;;3.27;2.20;;;18.30;56.80;;;;;;5048416;28;20475;-82
2021/12/14 01:15:00;;;;;;;3.57;2.73;;;18.40;56.80;;;;;;5052444;28;21061;-82
2021/12/14 01:17:40;;;;;;;2.57;2.47;;;18.40;56.80;;;;;;5047666;28;20486;-82
2021/12/14 01:20:10;;;;;;;2.73;2.53;;;18.30;56.70;;;;;;5048599;28;20456;-81
2021/12/14 01:22:42;;;;;;;3.30;3.10;;;18.30;56.80;;;;;;5063206;28;20845;-81
2021/12/14 01:25:15;;;;;;;2.93;2.73;;;18.30;56.70;;;;;;5048665;28;20470;-81
2021/12/14 01:27:49;;;;;;;2.53;2.43;;;18.30;56.80;;;;;;5055411;28;20439;-81
2021/12/14 01:30:23;;;;;;;3.10;2.90;;;18.30;56.80;;;;;;5048558;28;20479;-81
2021/12/14 01:32:51;;;;;;;2.93;2.63;;;18.30;56.80;;;;;;5054978;28;20468;-82
2021/12/14 01:35:23;;;;;;;3.23;2.97;;;18.30;56.80;;;;;;5045389;28;20478;-81
2021/12/14 01:38:01;;;;;;;4.00;3.40;;;18.30;56.80;;;;;;5053424;28;20475;-81
2021/12/14 01:40:53;;;;;;;3.47;3.20;;;18.30;57.40;;;;;;5049434;28;20470;-81
2021/12/14 01:43:19;;;;;;;3.20;3.00;;;18.30;56.70;;;;;;5055476;28;20475;-81
2021/12/14 01:45:48;;;;;;;3.23;2.90;;;18.30;56.70;;;;;;5051678;28;20956;-81
2021/12/14 01:48:16;;;;;;;3.70;3.07;;;18.30;56.70;;;;;;5053398;28;20473;-81
2021/12/14 01:50:47;;;;;;;4.07;3.00;;;18.30;56.70;;;;;;5058505;28;20485;-82
2021/12/14 01:53:15;;;;;;;3.30;3.10;;;18.30;56.70;;;;;;5054634;28;21012;-81
2021/12/14 01:55:50;;;;;;;4.97;3.07;;;18.20;56.60;;;;;;5056735;28;20472;-81
2021/12/14 01:58:19;;;;;;;3.30;3.00;;;18.30;56.70;;;;;;5045491;28;20443;-80
2021/12/14 02:00:52;;;;;;;2.80;2.60;;;18.20;56.50;;;;;;5048866;28;20478;-82
2021/12/14 02:03:21;;;;;;;3.57;3.27;;;18.30;56.70;;;;;;5054160;28;20545;-81
2021/12/14 02:05:50;;;;;;;3.00;2.80;;;18.30;56.60;;;;;;5057395;28;20478;-83
2021/12/14 02:08:19;;;;;;;3.20;3.00;;;18.20;56.60;;;;;;5059730;28;20512;-81
2021/12/14 02:10:47;;;;;;;3.60;3.30;;;18.20;56.50;;;;;;5062130;28;20419;-81
2021/12/14 02:13:22;;;;;;;3.40;3.20;;;18.20;56.50;;;;;;5048538;28;20447;-82
2021/12/14 02:15:52;;;;;;;4.20;2.80;;;18.20;56.50;;;;;;5041786;28;20455;-81
2021/12/14 02:18:23;;;;;;;3.50;3.20;;;18.20;56.40;;;;;;5041550;28;20446;-81
2021/12/14 02:20:55;;;;;;;3.33;3.13;;;18.20;56.40;;;;;;5054310;28;20533;-81
2021/12/14 02:23:23;;;;;;;4.17;3.30;;;18.20;56.50;;;;;;5058551;28;20447;-81
2021/12/14 02:25:51;;;;;;;3.40;3.10;;;18.20;56.50;;;;;;5054548;28;20463;-81
2021/12/14 02:28:21;;;;;;;2.73;2.53;;;18.20;56.40;;;;;;5053057;28;20436;-81
2021/12/14 02:30:51;;;;;;;3.80;2.80;;;18.20;56.30;;;;;;5054235;28;20871;-81
2021/12/14 02:33:21;;;;;;;3.20;3.00;;;18.20;56.40;;;;;;5053334;28;20503;-81
2021/12/14 02:35:50;;;;;;;3.10;2.90;;;18.20;56.40;;;;;;5059936;28;20454;-82
2021/12/14 02:38:20;;;;;;;3.60;2.87;;;18.20;56.40;;;;;;5062592;28;20434;-81
2021/12/14 02:40:57;;;;;;;5.43;3.03;;;18.20;56.30;;;;;;5062658;28;20473;-81
2021/12/14 02:43:30;;;;;;;3.00;2.80;;;18.20;56.50;;;;;;5062856;28;20494;-81
2021/12/14 02:46:03;;;;;;;2.90;2.70;;;18.20;56.50;;;;;;5059781;28;20522;-82
2021/12/14 02:48:31;;;;;;;3.20;2.97;;;18.20;56.50;;;;;;5052205;28;20474;-81
2021/12/14 02:51:06;;;;;;;2.80;2.70;;;18.20;56.50;;;;;;5060890;28;20454;-81
2021/12/14 02:53:36;;;;;;;2.80;2.60;;;18.20;56.40;;;;;;5049372;28;20501;-82
2021/12/14 02:56:09;;;;;;;2.97;2.50;;;18.20;56.50;;;;;;5052768;28;20457;-81
2021/12/14 02:58:37;;;;;;;2.60;2.40;;;18.20;56.50;;;;;;5051784;28;20470;-81
2021/12/14 03:01:06;;;;;;;3.30;3.10;;;18.20;56.50;;;;;;5051850;28;20445;-81
2021/12/14 03:03:35;;;;;;;2.77;2.57;;;18.20;56.50;;;;;;5050650;28;20805;-81
2021/12/14 03:06:04;;;;;;;2.83;2.63;;;18.20;56.60;;;;;;5050018;28;20458;-81
2021/12/14 03:08:37;;;;;;;3.47;2.70;;;18.20;56.40;;;;;;5045609;28;20538;-81
2021/12/14 03:11:11;;;;;;;2.53;2.33;;;18.20;56.40;;;;;;5045650;28;20470;-81
2021/12/14 03:13:40;;;;;;;4.00;3.13;;;18.20;56.50;;;;;;5047198;28;20471;-81
2021/12/14 03:16:09;;;;;;;2.70;2.50;;;18.20;56.50;;;;;;5052083;28;20451;-81
2021/12/14 03:18:39;;;;;;;3.00;2.70;;;18.20;56.50;;;;;;5052201;28;20466;-81
2021/12/14 03:21:09;;;;;;;2.80;2.60;;;18.20;56.50;;;;;;5048089;28;20432;-81
2021/12/14 03:23:40;;;;;;;3.10;2.80;;;18.20;56.50;;;;;;5050277;28;20474;-81
2021/12/14 03:26:11;;;;;;;3.57;2.40;;;18.20;56.50;;;;;;5048045;28;20954;-81
2021/12/14 03:28:39;;;;;;;2.93;2.20;;;18.20;56.50;;;;;;5050842;28;20459;-81
2021/12/14 03:31:24;;;;;;;2.47;2.27;;;18.20;56.50;;;;;;5046513;28;20459;-81
2021/12/14 03:33:54;;;;;;;2.90;2.70;;;18.20;56.50;;;;;;5046134;28;20486;-81
2021/12/14 03:36:24;;;;;;;2.80;2.60;;;18.20;56.50;;;;;;5045700;28;20455;-81
2021/12/14 03:38:54;;;;;;;3.10;2.90;;;18.20;56.60;;;;;;5046411;28;20851;-81
2021/12/14 03:41:25;;;;;;;2.50;2.37;;;18.20;56.60;;;;;;5040470;28;21001;-81
2021/12/14 03:43:54;;;;;;;2.67;2.47;;;18.20;56.50;;;;;;5043984;28;20467;-81
2021/12/14 03:46:22;;;;;;;3.37;2.30;;;18.20;56.60;;;;;;5043789;28;20523;-81
2021/12/14 03:48:50;;;;;;;2.93;2.73;;;18.20;56.60;;;;;;5041688;28;20435;-81
2021/12/14 03:51:20;;;;;;;5.50;2.67;;;18.20;56.70;;;;;;5051302;28;20472;-81
2021/12/14 03:53:49;;;;;;;6.10;2.80;;;18.20;56.60;;;;;;5049502;28;20506;-81
2021/12/14 03:56:17;;;;;;;2.67;2.47;;;18.20;56.50;;;;;;5045663;28;20542;-81
2021/12/14 03:58:47;;;;;;;2.77;2.57;;;18.20;56.60;;;;;;5052170;28;20538;-81
2021/12/14 04:01:17;;;;;;;2.90;2.70;;;18.20;56.60;;;;;;5049306;28;20473;-81
2021/12/14 04:03:46;;;;;;;2.87;2.67;;;18.20;56.60;;;;;;5052207;28;20454;-81
2021/12/14 04:06:14;;;;;;;3.73;3.30;;;18.20;56.60;;;;;;5038988;28;20466;-81
2021/12/14 04:08:42;;;;;;;2.90;2.70;;;18.20;56.50;;;;;;5040050;28;20424;-81
2021/12/14 04:11:11;;;;;;;3.10;2.77;;;18.20;56.50;;;;;;5037726;28;20499;-81
2021/12/14 04:13:41;;;;;;;4.80;3.40;;;18.20;56.50;;;;;;5039172;28;20479;-81
2021/12/14 04:16:11;;;;;;;2.93;2.73;;;18.20;56.50;;;;;;5039561;28;20537;-81
2021/12/14 04:18:38;;;;;;;2.90;2.80;;;18.20;56.50;;;;;;5039469;28;20450;-81
2021/12/14 04:21:06;;;;;;;2.50;2.40;;;18.20;56.50;;;;;;5058057;28;20522;-81
2021/12/14 04:23:36;;;;;;;3.50;3.20;;;18.20;56.50;;;;;;5059562;28;20504;-81
2021/12/14 04:26:05;;;;;;;2.87;2.67;;;18.20;56.60;;;;;;5059036;28;20435;-81
2021/12/14 04:28:34;;;;;;;2.70;2.53;;;18.20;56.40;;;;;;5059242;28;20453;-81
2021/12/14 04:31:03;;;;;;;2.73;2.63;;;18.20;56.50;;;;;;5059444;28;20478;-81
2021/12/14 04:33:34;;;;;;;2.50;2.40;;;18.20;56.50;;;;;;5059384;28;20493;-81
2021/12/14 04:36:04;;;;;;;3.63;3.27;;;18.10;56.40;;;;;;5051488;28;20538;-82
2021/12/14 04:38:37;;;;;;;3.93;2.97;;;18.10;56.50;;;;;;5059419;28;20431;-81
2021/12/14 04:52:13;;;;;;;2.70;2.50;;;18.10;56.60;;;;;;5059505;28;20464;-81
2021/12/14 04:54:43;;;;;;;2.90;2.70;;;18.10;56.70;;;;;;5050091;28;21061;-81
2021/12/14 04:57:18;;;;;;;2.53;2.40;;;18.10;56.60;;;;;;5059275;28;20479;-81
2021/12/14 04:59:46;;;;;;;2.90;2.70;;;18.10;56.60;;;;;;5059347;28;20462;-81
2021/12/14 05:02:15;;;;;;;3.20;3.00;;;18.10;56.60;;;;;;5044893;28;20474;-81
2021/12/14 05:04:45;;;;;;;2.97;2.80;;;18.10;56.60;;;;;;5047423;28;20454;-81
2021/12/14 05:07:33;;;;;;;2.60;2.50;;;18.10;56.60;;;;;;5056122;28;20557;-81
2021/12/14 05:10:00;;;;;;;3.17;2.97;;;18.20;56.70;;;;;;5057931;28;20475;-81
2021/12/14 05:12:33;;;;;;;3.10;2.90;;;18.20;56.60;;;;;;5058834;28;20525;-81
2021/12/14 05:15:02;;;;;;;2.80;2.60;;;18.20;56.60;;;;;;5061962;28;20465;-81
2021/12/14 05:17:32;;;;;;;2.70;2.53;;;18.20;56.60;;;;;;5061901;28;20442;-81
2021/12/14 05:20:01;;;;;;;2.97;2.77;;;18.20;56.60;;;;;;5061676;28;20432;-81
2021/12/14 05:22:32;;;;;;;2.80;2.60;;;18.10;56.50;;;;;;5063605;28;20495;-81
2021/12/14 05:25:03;;;;;;;2.83;2.63;;;18.20;56.60;;;;;;5066356;28;20516;-81
2021/12/14 05:27:33;;;;;;;3.03;2.83;;;18.10;56.50;;;;;;5063398;28;20494;-81
2021/12/14 05:30:07;;;;;;;2.93;2.73;;;18.10;56.60;;;;;;5066135;28;20510;-81
2021/12/14 05:32:35;;;;;;;3.27;2.97;;;18.10;56.50;;;;;;5066092;28;20533;-81
2021/12/14 05:35:09;;;;;;;3.00;2.80;;;18.20;56.60;;;;;;5065956;28;20461;-81
2021/12/14 05:37:45;;;;;;;3.10;2.90;;;18.10;56.50;;;;;;5066216;28;20446;-81
2021/12/14 05:40:20;;;;;;;2.70;2.50;;;18.20;56.60;;;;;;5066309;28;20465;-81
2021/12/14 05:43:07;;;;;;;2.70;2.50;;;18.10;56.60;;;;;;5065615;28;20473;-81
2021/12/14 05:45:36;;;;;;;3.93;2.80;;;18.10;56.60;;;;;;5062799;28;20485;-81
2021/12/14 05:48:05;;;;;;;2.70;2.50;;;18.10;56.70;;;;;;5057368;28;20564;-81
2021/12/14 05:50:35;;;;;;;3.07;2.87;;;18.10;56.50;;;;;;5065018;28;20494;-81
2021/12/14 05:53:03;;;;;;;2.80;2.60;;;18.10;56.60;;;;;;5064713;28;20463;-81
2021/12/14 05:55:34;;;;;;;3.10;2.80;;;18.10;56.60;;;;;;5065422;28;20434;-81
2021/12/14 05:58:03;;;;;;;3.20;2.90;;;18.10;56.60;;;;;;5064820;28;20438;-81
2021/12/14 06:00:33;;;;;;;3.03;2.83;;;18.10;56.60;;;;;;5064239;28;20476;-81
2021/12/14 06:03:01;;;;;;;3.67;3.47;;;18.10;56.70;;;;;;5056610;28;20474;-81
2021/12/14 06:05:30;;;;;;;3.80;3.50;;;18.10;56.60;;;;;;5059659;28;20430;-81
2021/12/14 06:07:59;;;;;;;2.70;2.60;;;18.10;56.60;;;;;;5064263;28;20564;-81
2021/12/14 06:10:29;;;;;;;3.43;3.17;;;18.10;56.60;;;;;;5064494;28;20473;-81
2021/12/14 06:12:57;;;;;;;2.97;2.83;;;18.10;56.60;;;;;;5065164;28;20457;-81
2021/12/14 06:15:28;;;;;;;5.70;3.03;;;18.20;56.60;;;;;;5065312;28;20454;-81
2021/12/14 06:17:56;;;;;;;3.13;2.93;;;18.10;56.50;;;;;;5065554;28;20451;-81
2021/12/14 06:20:25;;;;;;;3.07;2.87;;;18.10;56.50;;;;;;5057536;28;20521;-82
2021/12/14 06:22:54;;;;;;;2.93;2.73;;;18.20;56.60;;;;;;5063906;28;20447;-82
2021/12/14 06:25:27;;;;;;;3.57;3.27;;;18.10;56.60;;;;;;5064796;28;20438;-82
2021/12/14 06:27:59;;;;;;;3.90;2.97;;;18.10;56.60;;;;;;5064437;28;20442;-82
2021/12/14 06:30:28;;;;;;;2.90;2.70;;;18.10;56.70;;;;;;5064782;28;20449;-82
2021/12/14 06:32:58;;;;;;;3.00;2.80;;;18.10;56.60;;;;;;5064890;28;20479;-82
2021/12/14 06:35:30;;;;;;;2.93;2.73;;;18.10;56.60;;;;;;5058308;28;20446;-82
2021/12/14 06:38:23;;;;;;;3.20;2.90;;;18.10;56.50;;;;;;5063076;28;20465;-82
2021/12/14 06:40:59;;;;;;;4.20;3.40;;;18.20;56.50;;;;;;5063704;28;20513;-82
2021/12/14 06:43:28;;;;;;;3.37;3.17;;;18.10;56.50;;;;;;5063905;28;20469;-82
2021/12/14 06:45:58;;;;;;;3.20;3.00;;;18.20;56.60;;;;;;5064059;28;20470;-82
2021/12/14 06:48:29;;;;;;;2.90;2.80;;;18.10;56.50;;;;;;5064504;28;20451;-82
2021/12/14 06:51:02;;;;;;;3.63;3.33;;;18.10;56.50;;;;;;5063185;28;20466;-83
2021/12/14 06:53:30;;;;;;;3.10;2.90;;;18.10;56.50;;;;;;5062847;28;20505;-82
2021/12/14 06:56:01;;;;;;;2.80;2.60;;;18.10;56.50;;;;;;5064255;28;20463;-82
2021/12/14 06:58:30;;;;;;;3.70;3.40;;;18.10;56.50;;;;;;5063535;28;20454;-82
2021/12/14 07:01:07;;;;;;;3.87;3.57;;;18.10;56.60;;;;;;5064107;28;20473;-82
2021/12/14 07:03:41;;;;;;;3.47;3.17;;;18.10;56.60;;;;;;5063880;28;20486;-82
2021/12/14 07:06:09;;;;;;;3.50;3.30;;;18.10;56.50;;;;;;5064036;28;20469;-82
2021/12/14 07:08:37;;;;;;;3.67;3.37;;;18.10;56.50;;;;;;5060905;28;20446;-82
2021/12/14 07:11:06;;;;;;;3.60;3.30;;;18.10;56.60;;;;;;5063777;28;20462;-82
2021/12/14 07:13:38;;;;;;;3.50;3.30;;;18.10;56.60;;;;;;5063913;28;20482;-82
2021/12/14 07:16:19;;;;;;;3.37;3.10;;;18.10;56.50;;;;;;5064402;28;20500;-82
2021/12/14 07:18:52;;;;;;;3.23;3.03;;;18.10;56.50;;;;;;5064140;28;20537;-82
2021/12/14 07:21:41;;;;;;;3.43;3.23;;;18.10;56.50;;;;;;5061584;28;20466;-82
2021/12/14 07:24:31;;;;;;;3.63;3.33;;;18.10;56.40;;;;;;5061959;28;20502;-82
2021/12/14 07:27:17;;;;;;;3.33;3.03;;;18.10;56.50;;;;;;5054602;28;20446;-82
2021/12/14 07:29:45;;;;;;;5.10;3.33;;;18.10;56.60;;;;;;5063142;28;20462;-82
2021/12/14 07:32:13;;;;;;;2.93;2.73;;;18.10;56.50;;;;;;5059335;28;20462;-82
2021/12/14 07:34:41;;;;;;;3.60;3.30;;;18.10;56.60;;;;;;5059166;28;20490;-82
2021/12/14 07:37:10;;;;;;;3.40;3.20;;;18.10;56.60;;;;;;5059563;28;20426;-82
2021/12/14 07:39:38;;;;;;;3.60;3.33;;;18.10;56.60;;;;;;5058717;28;20466;-82
2021/12/14 07:42:06;;;;;;;3.87;3.50;;;18.10;56.50;;;;;;5058996;28;20457;-82
2021/12/14 07:44:38;;;;;;;3.33;3.13;;;18.10;56.60;;;;;;5054968;28;20480;-82
2021/12/14 07:47:07;;;;;;;3.63;3.33;;;18.10;56.60;;;;;;5051612;28;20442;-82
2021/12/14 07:49:37;;;;;;;4.50;4.10;;;18.10;56.60;;;;;;5056738;28;20427;-82
2021/12/14 07:52:14;;;;;;;3.57;3.30;;;18.10;56.60;;;;;;5056353;28;20554;-81
2021/12/14 07:54:44;;;;;;;3.80;3.50;;;18.10;56.50;;;;;;5060912;28;20462;-81
2021/12/14 07:57:13;;;;;;;3.53;3.23;;;18.10;56.60;;;;;;5049328;28;20451;-82
2021/12/14 07:59:44;;;;;;;4.40;4.00;;;18.10;56.50;;;;;;5049505;28;20542;-81
2021/12/14 08:02:15;;;;;;;3.30;3.10;;;18.10;56.60;;;;;;5046883;28;20493;-82
2021/12/14 08:04:45;;;;;;;4.13;3.73;;;18.10;56.50;;;;;;5057997;28;20458;-81
2021/12/14 08:07:22;;;;;;;4.60;3.90;;;18.10;56.50;;;;;;5060465;28;20465;-82
2021/12/14 08:09:52;;;;;;;4.40;4.00;;;18.00;56.40;;;;;;5060421;28;20473;-82
2021/12/14 08:12:35;;;;;;;3.40;3.20;;;18.10;57.20;;;;;;5060158;28;20977;-81
2021/12/14 08:15:20;;;;;;;4.67;4.13;;;18.10;56.60;;;;;;5060875;28;20462;-81
2021/12/14 08:17:57;;;;;;;4.43;3.73;;;18.10;56.70;;;;;;5057411;28;20546;-82
2021/12/14 08:20:26;;;;;;;3.30;3.10;;;18.10;56.60;;;;;;5060008;28;20546;-81
2021/12/14 08:22:54;;;;;;;3.90;3.57;;;18.10;56.40;;;;;;5059380;28;20992;-82
2021/12/14 08:25:24;;;;;;;4.03;3.73;;;18.10;56.60;;;;;;5059297;28;20502;-82
2021/12/14 08:28:00;;;;;;;3.90;3.53;;;18.10;56.60;;;;;;5060074;28;20461;-82
2021/12/14 08:30:31;;;;;;;3.80;3.50;;;18.10;56.50;;;;;;5060305;28;20426;-82
2021/12/14 08:32:59;;;;;;;4.00;3.67;;;18.10;56.60;;;;;;5060234;28;20506;-82
2021/12/14 08:35:27;;;;;;;4.17;3.70;;;18.10;56.50;;;;;;5052234;28;20526;-82
2021/12/14 08:37:58;;;;;;;3.90;3.30;;;18.10;56.60;;;;;;5060986;28;20530;-82
2021/12/14 08:40:28;;;;;;;4.10;3.80;;;18.10;56.50;;;;;;5060852;28;20545;-81
2021/12/14 08:43:02;;;;;;;4.40;4.00;;;18.10;56.50;;;;;;5059854;28;20533;-82
2021/12/14 08:45:36;;;;;;;3.97;3.47;;;18.10;56.40;;;;;;5057254;28;20439;-81
2021/12/14 08:48:09;;;;;;;4.97;3.67;;;18.10;56.40;;;;;;5053600;28;20522;-81
2021/12/14 08:50:39;;;;;;;4.53;4.13;;;18.20;56.50;;;;;;5058912;28;20434;-81
2021/12/14 08:53:08;;;;;;;4.03;3.73;;;18.10;56.50;;;;;;5042292;28;20569;-81
2021/12/14 08:55:37;;;;;;;4.30;3.90;;;18.20;56.50;;;;;;5056146;28;20459;-80
2021/12/14 08:58:05;;;;;;;3.87;3.57;;;18.20;56.40;;;;;;5058935;28;20525;-82
2021/12/14 09:00:37;;;;;;;4.47;3.80;;;18.20;56.50;;;;;;5059512;28;20451;-81
2021/12/14 09:03:06;;;;;;;3.87;3.57;;;18.20;56.50;;;;;;5059186;28;20455;-81
2021/12/14 09:05:36;;;;;;;4.90;3.30;;;18.20;56.40;;;;;;5059299;28;20446;-81
2021/12/14 09:08:05;;;;;;;4.17;3.77;;;18.20;56.30;;;;;;5059154;28;20473;-81
2021/12/14 09:10:34;;;;;;;3.97;3.63;;;18.20;56.40;;;;;;5053705;28;21029;-81
2021/12/14 09:13:06;;;;;;;3.93;3.60;;;18.20;56.40;;;;;;5058675;28;20525;-81
2021/12/14 09:15:37;;;;;;;4.63;4.07;;;18.20;56.40;;;;;;5056920;28;20442;-81
2021/12/14 09:18:05;;;;;;;3.60;3.40;;;18.20;56.30;;;;;;5051200;28;20459;-80
2021/12/14 09:20:34;;;;;;;4.20;3.90;;;18.20;56.30;;;;;;5059086;28;20502;-81
2021/12/14 09:23:04;;;;;;;4.97;4.17;;;18.20;56.40;;;;;;5050481;28;20451;-81
2021/12/14 09:25:32;;;;;;;4.10;3.70;;;18.20;56.30;;;;;;5056568;28;20467;-81
2021/12/14 09:28:01;;;;;;;4.07;3.77;;;18.20;56.30;;;;;;5052212;28;20474;-81
2021/12/14 09:30:32;;;;;;;4.57;4.17;;;18.20;56.40;;;;;;5054889;28;20431;-81
2021/12/14 09:33:02;;;;;;;3.90;3.60;;;18.20;56.30;;;;;;5038874;28;20471;-82
2021/12/14 09:35:30;;;;;;;4.37;4.07;;;18.20;56.30;;;;;;5039402;28;20462;-82
2021/12/14 09:37:58;;;;;;;5.33;3.70;;;18.20;56.40;;;;;;5040039;28;20440;-82
2021/12/14 09:40:28;;;;;;;3.90;3.47;;;18.20;56.40;;;;;;5039364;28;20508;-83
2021/12/14 09:42:57;;;;;;;4.90;4.40;;;18.20;56.40;;;;;;5053968;28;20498;-82
2021/12/14 09:45:26;;;;;;;5.00;3.47;;;18.20;56.30;;;;;;5052075;28;20519;-82
2021/12/14 09:47:55;;;;;;;5.20;4.70;;;18.30;56.40;;;;;;5047224;28;20447;-82
2021/12/14 09:50:26;;;;;;;4.53;4.13;;;18.20;56.30;;;;;;5039238;28;20463;-82
2021/12/14 09:52:54;;;;;;;4.77;4.33;;;18.20;56.30;;;;;;5039110;28;20496;-82
2021/12/14 09:55:29;;;;;;;4.37;4.07;;;18.30;56.40;;;;;;5057896;28;20470;-81
2021/12/14 09:57:57;;;;;;;4.67;4.20;;;18.30;56.40;;;;;;5050599;28;20518;-81
2021/12/14 10:00:28;;;;;;;4.83;4.30;;;18.30;56.40;;;;;;5051517;28;20466;-81
2021/12/14 10:02:57;;;;;;;4.87;4.47;;;18.30;56.40;;;;;;5051058;28;20517;-81
2021/12/14 10:05:29;;;;;;;5.43;4.47;;;18.30;56.40;;;;;;5054048;28;20439;-81
2021/12/14 10:07:57;;;;;;;4.10;3.80;;;18.30;56.30;;;;;;5041171;28;20428;-81
2021/12/14 10:10:24;;;;;;;6.20;5.17;;;18.30;56.40;;;;;;5043311;28;20447;-81
2021/12/14 10:12:54;;;;;;;4.90;4.50;;;18.30;56.30;;;;;;5045118;28;20507;-81
2021/12/14 10:15:31;;;;;;;5.63;4.60;;;18.30;56.30;;;;;;5045258;28;20459;-81
2021/12/14 10:18:00;;;;;;;4.70;4.30;;;18.30;56.20;;;;;;5054984;28;20510;-81
2021/12/14 10:20:37;;;;;;;4.93;4.43;;;18.30;56.40;;;;;;5051959;28;20481;-81
2021/12/14 10:23:04;;;;;;;4.70;4.30;;;18.30;56.30;;;;;;5055097;28;20478;-81
2021/12/14 10:25:32;;;;;;;5.33;4.33;;;18.30;56.40;;;;;;5055501;28;20458;-81
2021/12/14 10:28:00;;;;;;;4.90;4.40;;;18.30;56.30;;;;;;5054045;28;20454;-81
2021/12/14 10:30:30;;;;;;;6.00;4.50;;;18.30;56.40;;;;;;5054296;28;20964;-81
2021/12/14 10:33:00;;;;;;;5.57;4.77;;;18.30;56.30;;;;;;5053804;28;20566;-81
2021/12/14 10:35:34;;;;;;;5.17;4.77;;;18.30;56.30;;;;;;5053448;28;20461;-81
2021/12/14 10:38:14;;;;;;;5.87;5.27;;;18.30;56.30;;;;;;5051676;28;20453;-81
2021/12/14 10:43:29;;;;;;;5.13;4.63;;;18.40;56.30;;;;;;5055025;28;20461;-81
2021/12/14 10:45:58;;;;;;;6.53;4.87;;;18.40;56.40;;;;;;5053324;28;20471;-81
2021/12/14 10:48:30;;;;;;;6.50;3.97;;;18.40;56.50;;;;;;5053334;28;20538;-81
2021/12/14 10:50:59;;;;;;;5.13;4.63;;;18.40;56.40;;;;;;5054019;28;20450;-81
2021/12/14 10:53:28;;;;;;;4.70;4.30;;;18.40;56.40;;;;;;5053935;28;20481;-81
2021/12/14 10:55:59;;;;;;;4.73;4.20;;;18.40;56.30;;;;;;5054412;28;20446;-81
2021/12/14 10:58:28;;;;;;;5.33;4.83;;;18.40;56.40;;;;;;5055297;28;20885;-81
2021/12/14 11:00:57;;;;;;;5.03;4.57;;;18.40;56.40;;;;;;5052598;28;20440;-81
2021/12/14 11:03:27;;;;;;;4.63;4.23;;;18.40;56.30;;;;;;5052872;28;20526;-81
2021/12/14 11:06:01;;;;;;;4.73;4.33;;;18.40;56.30;;;;;;5053090;28;20451;-81
2021/12/14 11:08:43;;;;;;;4.80;4.40;;;18.40;56.40;;;;;;5052817;28;20510;-81
2021/12/14 11:11:13;;;;;;;5.30;4.80;;;18.40;56.40;;;;;;5052464;28;20448;-81
2021/12/14 11:13:43;;;;;;;6.60;5.20;;;18.40;56.40;;;;;;5054204;28;20539;-81
2021/12/14 11:16:17;;;;;;;4.67;4.27;;;18.40;56.30;;;;;;5055195;28;20455;-81
2021/12/14 11:18:46;;;;;;;5.30;4.60;;;18.40;56.40;;;;;;5053820;28;20459;-81
2021/12/14 11:21:15;;;;;;;4.73;4.40;;;18.40;56.40;;;;;;5053003;28;20468;-81
2021/12/14 11:23:45;;;;;;;5.17;4.67;;;18.40;56.30;;;;;;5052757;28;20500;-81
2021/12/14 11:26:16;;;;;;;4.70;4.30;;;18.50;56.50;;;;;;5054926;28;20512;-81
2021/12/14 11:28:45;;;;;;;4.77;4.40;;;18.50;56.30;;;;;;5052243;28;20455;-81
2021/12/14 11:31:16;;;;;;;8.20;4.90;;;18.50;56.40;;;;;;5052750;28;20543;-81
2021/12/14 11:33:46;;;;;;;4.90;4.50;;;18.50;56.40;;;;;;5052862;28;20475;-81
2021/12/14 11:36:16;;;;;;;4.90;4.40;;;18.50;56.30;;;;;;5052188;28;20416;-81
2021/12/14 11:38:47;;;;;;;5.10;4.70;;;18.50;56.30;;;;;;5053589;28;20463;-81
2021/12/14 11:41:31;;;;;;;5.27;4.77;;;18.50;57.00;;;;;;5054499;28;20926;-81
2021/12/14 11:44:01;;;;;;;4.80;4.40;;;18.50;56.30;;;;;;5052146;28;20542;-81
2021/12/14 11:46:31;;;;;;;4.93;4.53;;;18.50;56.30;;;;;;5049888;28;20458;-81
2021/12/14 11:49:00;;;;;;;4.50;4.10;;;18.50;56.20;;;;;;5059859;28;20441;-81
2021/12/14 11:51:28;;;;;;;5.10;4.60;;;18.50;56.20;;;;;;5063307;28;20526;-82
2021/12/14 11:53:58;;;;;;;4.80;4.40;;;18.50;56.30;;;;;;5062587;28;20561;-81
2021/12/14 11:56:28;;;;;;;4.93;4.47;;;18.50;56.30;;;;;;5044301;28;20466;-81
2021/12/14 11:58:56;;;;;;;5.33;4.83;;;18.50;56.20;;;;;;5043482;28;20528;-81
2021/12/14 12:01:26;;;;;;;4.60;4.20;;;18.50;56.30;;;;;;5053044;28;20435;-81
2021/12/14 12:03:56;;;;;;;5.77;4.93;;;18.50;56.20;;;;;;5056841;28;20525;-81
2021/12/14 12:09:28;;;;;;;5.50;5.00;;;18.50;56.20;;;;;;5054643;28;20466;-81
2021/12/14 12:09:43;;;;;;;7.53;5.40;;;18.50;56.30;;;;;;5052104;28;20454;-81
2021/12/14 12:12:21;;;;;;;5.57;5.07;;;18.50;56.20;;;;;;5052266;28;20433;-81
2021/12/14 12:14:52;;;;;;;5.33;4.50;;;18.50;56.30;;;;;;5053138;28;20534;-81
2021/12/14 12:17:24;;;;;;;5.97;5.20;;;18.50;56.40;;;;;;5053021;28;20454;-82
2021/12/14 12:20:03;;;;;;;5.73;4.60;;;18.60;56.40;;;;;;5053298;28;20515;-82
2021/12/14 12:22:33;;;;;;;5.30;4.80;;;18.50;56.30;;;;;;5054114;28;20472;-81
2021/12/14 12:25:04;;;;;;;5.97;4.60;;;18.60;56.50;;;;;;5053475;28;20420;-81
2021/12/14 12:27:41;;;;;;;7.43;5.47;;;18.60;56.40;;;;;;5050947;28;20466;-81
2021/12/14 12:30:34;;;;;;;6.57;5.87;;;18.60;56.30;;;;;;5052517;28;20519;-81
2021/12/14 12:33:34;;;;;;;6.40;5.30;;;18.60;56.40;;;;;;5041997;28;20444;-81
2021/12/14 12:36:08;;;;;;;6.37;5.77;;;18.60;56.30;;;;;;5018268;28;20495;-82
2021/12/14 12:38:40;;;;;;;6.33;4.97;;;18.60;56.50;;;;;;5047608;28;20519;-81
2021/12/14 12:41:16;;;;;;;5.93;5.40;;;18.60;56.50;;;;;;5052646;28;20457;-81
2021/12/14 12:43:46;;;;;;;5.80;5.20;;;18.60;56.40;;;;;;5050305;28;20559;-81
2021/12/14 12:46:18;;;;;;;6.13;5.50;;;18.60;56.40;;;;;;5042311;28;20436;-81
2021/12/14 12:48:50;;;;;;;6.07;5.57;;;18.60;56.30;;;;;;5048152;28;20508;-82
2021/12/14 12:52:07;;;;;;;6.37;5.77;;;18.60;56.40;;;;;;5053438;28;20423;-82
2021/12/14 12:54:50;;;;;;;6.00;5.40;;;18.60;56.20;;;;;;5049201;28;20524;-81
2021/12/14 12:57:40;;;;;;;5.90;5.40;;;18.60;56.40;;;;;;5053612;28;20521;-82
2021/12/14 13:00:42;;;;;;;6.33;5.50;;;18.60;56.40;;;;;;5050812;28;20475;-81
2021/12/14 13:03:32;;;;;;;6.77;5.73;;;18.60;56.40;;;;;;5051589;28;20515;-81
2021/12/14 13:06:01;;;;;;;5.63;5.10;;;18.60;56.50;;;;;;5050768;28;20427;-81
2021/12/14 13:08:30;;;;;;;5.80;5.30;;;18.60;56.40;;;;;;5050466;28;20534;-82
2021/12/14 13:11:00;;;;;;;6.30;5.70;;;18.60;56.40;;;;;;5050599;28;20551;-81
2021/12/14 13:13:30;;;;;;;5.73;5.23;;;18.60;56.50;;;;;;5049469;28;20491;-81
2021/12/14 13:16:07;;;;;;;5.83;5.23;;;18.60;56.40;;;;;;5052718;28;20483;-82
2021/12/14 13:18:47;;;;;;;5.80;5.30;;;18.60;56.40;;;;;;5052183;28;20431;-82
2021/12/14 13:21:25;;;;;;;5.40;4.90;;;18.60;56.50;;;;;;5050877;28;20454;-81
2021/12/14 13:24:03;;;;;;;7.67;5.73;;;18.60;56.40;;;;;;5038666;28;20474;-81
2021/12/14 13:26:37;;;;;;;6.10;5.60;;;18.60;56.40;;;;;;5044518;28;20502;-81